Huvudsida
METAR-TAF:

METAR-TAF

Flygplatser :

Seymour Airport

Baltra Island, Galapagosöarna, Ecuador

latitud: 00-27-14S, longitud: 090-15-57W, höjd: 63 m

Aktuellt väderrapport

Denna rapport gjordes för 14 timmar och 29 minuter sedan, klockan 22:00 UTC
Vind 17 kt från sydost
Temperatur 28°C
Fuktighet 62%
Tryck 1010 hPa
Sikt 10 km eller mer
Få moln på en höjd av 2600 ft

METAR: SEGS 152200Z 14017KT 9999 FEW026 28/20 Q1010 RMK A2984

Tid: 06:29 (12:29 UTC)


TAF: saknas

Aktuella väderrapporter och prognoser från 4000 flygplatser (METAR- och TAF-rapporter).

De tillgängliga stationerna syns som gula och röda prickar på kartan.

För musen över prickarna för att se namnen på stationerna.

Klicka sedan för att få väderrapporter och prognoser.

För att ändra kartan: Klicka på de gröna knapparna med ett svart kors på för att zooma in; den gröna knappen med ett streck på för att zooma ut; eller på de gröna pilarna för angränsande kartor.


METAR-TAF: